sensor_id;sensor_type;location;lat;lon;timestamp;P1;durP1;ratioP1;P2;durP2;ratioP2
4704;SDS011;2366;51.332;6.610;2023-08-30T00:01:57;16.20;;;11.70;;
4704;SDS011;2366;51.332;6.610;2023-08-30T00:04:22;18.37;;;13.70;;
4704;SDS011;2366;51.332;6.610;2023-08-30T00:06:48;15.90;;;13.07;;
4704;SDS011;2366;51.332;6.610;2023-08-30T00:09:13;18.20;;;13.60;;
4704;SDS011;2366;51.332;6.610;2023-08-30T00:11:38;16.50;;;13.47;;
4704;SDS011;2366;51.332;6.610;2023-08-30T00:14:04;20.27;;;14.97;;
4704;SDS011;2366;51.332;6.610;2023-08-30T00:16:32;17.08;;;14.80;;
4704;SDS011;2366;51.332;6.610;2023-08-30T00:18:59;20.63;;;14.85;;
4704;SDS011;2366;51.332;6.610;2023-08-30T00:21:25;22.97;;;15.63;;
4704;SDS011;2366;51.332;6.610;2023-08-30T00:23:52;20.02;;;14.98;;
4704;SDS011;2366;51.332;6.610;2023-08-30T00:26:17;15.93;;;14.23;;
4704;SDS011;2366;51.332;6.610;2023-08-30T00:28:43;21.23;;;14.60;;
4704;SDS011;2366;51.332;6.610;2023-08-30T00:31:08;20.53;;;16.27;;
4704;SDS011;2366;51.332;6.610;2023-08-30T00:33:33;26.17;;;16.73;;
4704;SDS011;2366;51.332;6.610;2023-08-30T00:35:59;26.73;;;15.80;;
4704;SDS011;2366;51.332;6.610;2023-08-30T00:38:26;33.07;;;16.37;;
4704;SDS011;2366;51.332;6.610;2023-08-30T00:40:52;22.42;;;17.08;;
4704;SDS011;2366;51.332;6.610;2023-08-30T00:43:18;26.10;;;17.80;;
4704;SDS011;2366;51.332;6.610;2023-08-30T00:45:44;25.42;;;14.63;;
4704;SDS011;2366;51.332;6.610;2023-08-30T00:48:10;25.77;;;16.20;;
4704;SDS011;2366;51.332;6.610;2023-08-30T00:50:36;19.33;;;14.70;;
4704;SDS011;2366;51.332;6.610;2023-08-30T00:53:02;21.17;;;14.60;;
4704;SDS011;2366;51.332;6.610;2023-08-30T00:55:31;21.27;;;15.73;;
4704;SDS011;2366;51.332;6.610;2023-08-30T00:57:58;24.80;;;15.05;;
4704;SDS011;2366;51.332;6.610;2023-08-30T01:00:25;20.20;;;15.75;;
4704;SDS011;2366;51.332;6.610;2023-08-30T01:02:52;28.38;;;18.25;;
4704;SDS011;2366;51.332;6.610;2023-08-30T01:05:18;23.67;;;17.07;;
4704;SDS011;2366;51.332;6.610;2023-08-30T01:07:44;21.77;;;16.53;;
4704;SDS011;2366;51.332;6.610;2023-08-30T01:10:09;23.77;;;15.90;;
4704;SDS011;2366;51.332;6.610;2023-08-30T01:12:48;20.63;;;16.95;;
4704;SDS011;2366;51.332;6.610;2023-08-30T01:15:18;23.60;;;16.08;;
4704;SDS011;2366;51.332;6.610;2023-08-30T01:17:45;22.10;;;16.40;;
4704;SDS011;2366;51.332;6.610;2023-08-30T01:20:13;28.58;;;17.67;;
4704;SDS011;2366;51.332;6.610;2023-08-30T01:22:47;25.23;;;18.10;;
4704;SDS011;2366;51.332;6.610;2023-08-30T01:28:22;24.83;;;17.05;;
4704;SDS011;2366;51.332;6.610;2023-08-30T01:30:51;29.83;;;18.10;;
4704;SDS011;2366;51.332;6.610;2023-08-30T01:33:22;24.63;;;17.85;;
4704;SDS011;2366;51.332;6.610;2023-08-30T01:35:49;24.00;;;16.63;;
4704;SDS011;2366;51.332;6.610;2023-08-30T01:38:15;23.30;;;16.88;;
4704;SDS011;2366;51.332;6.610;2023-08-30T01:40:42;21.67;;;15.10;;
4704;SDS011;2366;51.332;6.610;2023-08-30T01:43:09;22.02;;;16.48;;
4704;SDS011;2366;51.332;6.610;2023-08-30T01:45:39;23.05;;;18.13;;
4704;SDS011;2366;51.332;6.610;2023-08-30T01:48:09;22.40;;;16.73;;
4704;SDS011;2366;51.332;6.610;2023-08-30T01:50:36;23.67;;;15.60;;
4704;SDS011;2366;51.332;6.610;2023-08-30T01:53:04;27.38;;;16.05;;
4704;SDS011;2366;51.332;6.610;2023-08-30T01:55:30;20.75;;;16.67;;
4704;SDS011;2366;51.332;6.610;2023-08-30T01:57:58;21.85;;;18.08;;
4704;SDS011;2366;51.332;6.610;2023-08-30T02:00:23;22.97;;;16.73;;
4704;SDS011;2366;51.332;6.610;2023-08-30T02:02:49;22.63;;;15.53;;
4704;SDS011;2366;51.332;6.610;2023-08-30T02:05:14;26.80;;;16.30;;
4704;SDS011;2366;51.332;6.610;2023-08-30T02:07:43;23.13;;;17.20;;
4704;SDS011;2366;51.332;6.610;2023-08-30T02:10:12;25.63;;;16.75;;
4704;SDS011;2366;51.332;6.610;2023-08-30T02:12:44;22.45;;;17.65;;
4704;SDS011;2366;51.332;6.610;2023-08-30T02:15:13;18.20;;;13.80;;
4704;SDS011;2366;51.332;6.610;2023-08-30T02:17:39;31.48;;;16.52;;
4704;SDS011;2366;51.332;6.610;2023-08-30T02:20:05;20.40;;;15.97;;
4704;SDS011;2366;51.332;6.610;2023-08-30T02:22:32;21.48;;;16.20;;
4704;SDS011;2366;51.332;6.610;2023-08-30T02:24:58;20.98;;;15.63;;
4704;SDS011;2366;51.332;6.610;2023-08-30T02:27:24;20.08;;;14.93;;
4704;SDS011;2366;51.332;6.610;2023-08-30T02:29:50;20.83;;;15.87;;
4704;SDS011;2366;51.332;6.610;2023-08-30T02:32:15;21.33;;;15.40;;
4704;SDS011;2366;51.332;6.610;2023-08-30T02:34:45;19.83;;;14.35;;
4704;SDS011;2366;51.332;6.610;2023-08-30T02:37:14;20.63;;;15.55;;
4704;SDS011;2366;51.332;6.610;2023-08-30T02:39:40;21.67;;;16.27;;
4704;SDS011;2366;51.332;6.610;2023-08-30T02:42:05;21.10;;;13.37;;
4704;SDS011;2366;51.332;6.610;2023-08-30T02:44:31;20.00;;;14.53;;
4704;SDS011;2366;51.332;6.610;2023-08-30T02:46:56;17.17;;;15.17;;
4704;SDS011;2366;51.332;6.610;2023-08-30T02:49:21;24.90;;;15.70;;
4704;SDS011;2366;51.332;6.610;2023-08-30T02:51:47;24.10;;;16.30;;
4704;SDS011;2366;51.332;6.610;2023-08-30T02:54:12;25.63;;;16.23;;
4704;SDS011;2366;51.332;6.610;2023-08-30T02:56:38;25.87;;;17.33;;
4704;SDS011;2366;51.332;6.610;2023-08-30T02:59:06;24.85;;;16.83;;
4704;SDS011;2366;51.332;6.610;2023-08-30T03:01:31;39.73;;;16.60;;
4704;SDS011;2366;51.332;6.610;2023-08-30T03:03:56;23.00;;;14.87;;
4704;SDS011;2366;51.332;6.610;2023-08-30T03:06:22;22.47;;;16.53;;
4704;SDS011;2366;51.332;6.610;2023-08-30T03:08:47;25.17;;;16.20;;
4704;SDS011;2366;51.332;6.610;2023-08-30T03:11:13;30.43;;;15.83;;
4704;SDS011;2366;51.332;6.610;2023-08-30T03:13:38;21.25;;;16.35;;
4704;SDS011;2366;51.332;6.610;2023-08-30T03:16:14;18.43;;;14.20;;
4704;SDS011;2366;51.332;6.610;2023-08-30T03:18:40;18.60;;;13.88;;
4704;SDS011;2366;51.332;6.610;2023-08-30T03:21:06;23.80;;;16.45;;
4704;SDS011;2366;51.332;6.610;2023-08-30T03:23:32;19.97;;;15.83;;
4704;SDS011;2366;51.332;6.610;2023-08-30T03:25:58;26.15;;;14.80;;
4704;SDS011;2366;51.332;6.610;2023-08-30T03:28:24;20.80;;;16.48;;
4704;SDS011;2366;51.332;6.610;2023-08-30T03:30:50;25.07;;;14.90;;
4704;SDS011;2366;51.332;6.610;2023-08-30T03:33:15;27.30;;;16.90;;
4704;SDS011;2366;51.332;6.610;2023-08-30T03:35:41;25.53;;;16.00;;
4704;SDS011;2366;51.332;6.610;2023-08-30T03:38:06;21.30;;;15.37;;
4704;SDS011;2366;51.332;6.610;2023-08-30T03:40:32;24.97;;;17.63;;
4704;SDS011;2366;51.332;6.610;2023-08-30T03:42:57;23.00;;;15.53;;
4704;SDS011;2366;51.332;6.610;2023-08-30T03:45:23;21.93;;;16.90;;
4704;SDS011;2366;51.332;6.610;2023-08-30T03:47:48;22.87;;;15.70;;
4704;SDS011;2366;51.332;6.610;2023-08-30T03:50:14;33.63;;;18.10;;
4704;SDS011;2366;51.332;6.610;2023-08-30T03:52:40;23.52;;;19.08;;
4704;SDS011;2366;51.332;6.610;2023-08-30T03:55:05;23.50;;;15.97;;
4704;SDS011;2366;51.332;6.610;2023-08-30T03:57:31;22.30;;;16.70;;
4704;SDS011;2366;51.332;6.610;2023-08-30T03:59:57;23.13;;;17.55;;
4704;SDS011;2366;51.332;6.610;2023-08-30T04:02:23;21.93;;;17.40;;
4704;SDS011;2366;51.332;6.610;2023-08-30T04:04:48;21.00;;;16.73;;
4704;SDS011;2366;51.332;6.610;2023-08-30T04:07:14;28.83;;;18.13;;
4704;SDS011;2366;51.332;6.610;2023-08-30T04:09:40;26.93;;;18.30;;
4704;SDS011;2366;51.332;6.610;2023-08-30T04:12:06;21.63;;;15.40;;
4704;SDS011;2366;51.332;6.610;2023-08-30T04:14:31;26.60;;;17.63;;
4704;SDS011;2366;51.332;6.610;2023-08-30T04:16:57;26.67;;;16.97;;
4704;SDS011;2366;51.332;6.610;2023-08-30T04:19:22;28.37;;;17.67;;
4704;SDS011;2366;51.332;6.610;2023-08-30T04:21:47;21.10;;;16.00;;
4704;SDS011;2366;51.332;6.610;2023-08-30T04:24:13;27.87;;;18.00;;
4704;SDS011;2366;51.332;6.610;2023-08-30T04:26:39;24.40;;;17.35;;
4704;SDS011;2366;51.332;6.610;2023-08-30T04:29:05;20.23;;;16.77;;
4704;SDS011;2366;51.332;6.610;2023-08-30T04:31:31;25.80;;;17.23;;
4704;SDS011;2366;51.332;6.610;2023-08-30T04:33:56;33.60;;;18.20;;
4704;SDS011;2366;51.332;6.610;2023-08-30T04:36:22;32.97;;;17.17;;
4704;SDS011;2366;51.332;6.610;2023-08-30T04:38:48;23.53;;;17.63;;
4704;SDS011;2366;51.332;6.610;2023-08-30T04:41:13;23.73;;;16.50;;
4704;SDS011;2366;51.332;6.610;2023-08-30T04:43:38;28.00;;;18.37;;
4704;SDS011;2366;51.332;6.610;2023-08-30T04:46:04;24.13;;;18.53;;
4704;SDS011;2366;51.332;6.610;2023-08-30T04:48:29;17.37;;;14.97;;
4704;SDS011;2366;51.332;6.610;2023-08-30T04:51:01;29.27;;;18.30;;
4704;SDS011;2366;51.332;6.610;2023-08-30T04:53:31;29.80;;;15.82;;
4704;SDS011;2366;51.332;6.610;2023-08-30T04:55:56;27.03;;;16.93;;
4704;SDS011;2366;51.332;6.610;2023-08-30T04:58:22;24.60;;;16.87;;
4704;SDS011;2366;51.332;6.610;2023-08-30T05:00:47;28.10;;;15.00;;
4704;SDS011;2366;51.332;6.610;2023-08-30T05:03:13;21.77;;;15.63;;
4704;SDS011;2366;51.332;6.610;2023-08-30T05:05:38;18.90;;;15.23;;
4704;SDS011;2366;51.332;6.610;2023-08-30T05:08:04;20.47;;;15.37;;
4704;SDS011;2366;51.332;6.610;2023-08-30T05:10:29;23.83;;;15.40;;
4704;SDS011;2366;51.332;6.610;2023-08-30T05:12:54;19.70;;;13.17;;
4704;SDS011;2366;51.332;6.610;2023-08-30T05:15:20;19.97;;;15.17;;
4704;SDS011;2366;51.332;6.610;2023-08-30T05:17:45;24.03;;;15.20;;
4704;SDS011;2366;51.332;6.610;2023-08-30T05:20:11;26.60;;;14.90;;
4704;SDS011;2366;51.332;6.610;2023-08-30T05:22:37;21.70;;;15.20;;
4704;SDS011;2366;51.332;6.610;2023-08-30T05:25:02;24.33;;;15.23;;
4704;SDS011;2366;51.332;6.610;2023-08-30T05:27:28;20.80;;;13.40;;
4704;SDS011;2366;51.332;6.610;2023-08-30T05:29:54;20.00;;;14.13;;
4704;SDS011;2366;51.332;6.610;2023-08-30T05:32:21;22.02;;;14.73;;
4704;SDS011;2366;51.332;6.610;2023-08-30T05:34:46;27.30;;;15.83;;
4704;SDS011;2366;51.332;6.610;2023-08-30T05:37:12;16.67;;;14.33;;
4704;SDS011;2366;51.332;6.610;2023-08-30T05:39:37;19.07;;;13.83;;
4704;SDS011;2366;51.332;6.610;2023-08-30T05:42:03;31.00;;;13.90;;
4704;SDS011;2366;51.332;6.610;2023-08-30T05:44:28;18.97;;;14.77;;
4704;SDS011;2366;51.332;6.610;2023-08-30T05:46:54;16.70;;;12.37;;
4704;SDS011;2366;51.332;6.610;2023-08-30T05:49:19;20.33;;;13.70;;
4704;SDS011;2366;51.332;6.610;2023-08-30T05:51:45;17.40;;;13.00;;
4704;SDS011;2366;51.332;6.610;2023-08-30T05:54:10;14.30;;;12.73;;
4704;SDS011;2366;51.332;6.610;2023-08-30T05:56:36;21.70;;;12.83;;
4704;SDS011;2366;51.332;6.610;2023-08-30T05:59:02;16.23;;;11.90;;
4704;SDS011;2366;51.332;6.610;2023-08-30T06:01:27;18.10;;;10.73;;
4704;SDS011;2366;51.332;6.610;2023-08-30T06:03:52;15.97;;;12.87;;
4704;SDS011;2366;51.332;6.610;2023-08-30T06:06:18;18.80;;;12.50;;
4704;SDS011;2366;51.332;6.610;2023-08-30T06:08:47;13.82;;;10.30;;
4704;SDS011;2366;51.332;6.610;2023-08-30T06:11:12;12.70;;;10.93;;
4704;SDS011;2366;51.332;6.610;2023-08-30T06:13:39;17.95;;;12.52;;
4704;SDS011;2366;51.332;6.610;2023-08-30T06:16:04;16.23;;;12.30;;
4704;SDS011;2366;51.332;6.610;2023-08-30T06:18:30;21.77;;;10.93;;
4704;SDS011;2366;51.332;6.610;2023-08-30T06:20:57;13.30;;;10.52;;
4704;SDS011;2366;51.332;6.610;2023-08-30T06:23:22;11.97;;;9.20;;
4704;SDS011;2366;51.332;6.610;2023-08-30T06:25:57;14.73;;;8.80;;
4704;SDS011;2366;51.332;6.610;2023-08-30T06:28:22;15.23;;;9.50;;
4704;SDS011;2366;51.332;6.610;2023-08-30T06:30:48;24.13;;;10.23;;
4704;SDS011;2366;51.332;6.610;2023-08-30T06:33:14;16.17;;;10.33;;
4704;SDS011;2366;51.332;6.610;2023-08-30T06:35:39;11.43;;;9.27;;
4704;SDS011;2366;51.332;6.610;2023-08-30T06:38:05;11.63;;;10.43;;
4704;SDS011;2366;51.332;6.610;2023-08-30T06:40:30;11.87;;;9.00;;
4704;SDS011;2366;51.332;6.610;2023-08-30T06:42:56;10.70;;;8.00;;
4704;SDS011;2366;51.332;6.610;2023-08-30T06:45:22;15.03;;;9.00;;
4704;SDS011;2366;51.332;6.610;2023-08-30T06:47:48;12.47;;;8.87;;
4704;SDS011;2366;51.332;6.610;2023-08-30T06:50:14;11.10;;;8.57;;
4704;SDS011;2366;51.332;6.610;2023-08-30T06:52:40;8.13;;;7.33;;
4704;SDS011;2366;51.332;6.610;2023-08-30T06:55:05;8.97;;;8.07;;
4704;SDS011;2366;51.332;6.610;2023-08-30T06:57:31;8.50;;;7.60;;
4704;SDS011;2366;51.332;6.610;2023-08-30T06:59:56;10.60;;;7.80;;
4704;SDS011;2366;51.332;6.610;2023-08-30T07:02:23;12.37;;;7.43;;
4704;SDS011;2366;51.332;6.610;2023-08-30T07:04:49;8.00;;;6.53;;
4704;SDS011;2366;51.332;6.610;2023-08-30T07:07:14;8.23;;;6.13;;
4704;SDS011;2366;51.332;6.610;2023-08-30T07:09:40;7.50;;;5.70;;
4704;SDS011;2366;51.332;6.610;2023-08-30T07:12:06;8.80;;;7.70;;
4704;SDS011;2366;51.332;6.610;2023-08-30T07:14:32;10.50;;;6.40;;
4704;SDS011;2366;51.332;6.610;2023-08-30T07:16:57;11.13;;;6.70;;
4704;SDS011;2366;51.332;6.610;2023-08-30T07:19:24;6.80;;;5.23;;
4704;SDS011;2366;51.332;6.610;2023-08-30T07:21:50;7.63;;;6.60;;
4704;SDS011;2366;51.332;6.610;2023-08-30T07:24:15;7.40;;;5.43;;
4704;SDS011;2366;51.332;6.610;2023-08-30T07:26:41;9.13;;;6.17;;
4704;SDS011;2366;51.332;6.610;2023-08-30T07:29:06;7.90;;;5.23;;
4704;SDS011;2366;51.332;6.610;2023-08-30T07:31:32;8.83;;;4.90;;
4704;SDS011;2366;51.332;6.610;2023-08-30T07:33:58;6.53;;;5.40;;
4704;SDS011;2366;51.332;6.610;2023-08-30T07:36:24;7.47;;;5.60;;
4704;SDS011;2366;51.332;6.610;2023-08-30T07:38:51;5.33;;;4.80;;
4704;SDS011;2366;51.332;6.610;2023-08-30T07:41:16;5.13;;;4.13;;
4704;SDS011;2366;51.332;6.610;2023-08-30T07:43:41;7.40;;;5.20;;
4704;SDS011;2366;51.332;6.610;2023-08-30T07:46:07;4.13;;;3.73;;
4704;SDS011;2366;51.332;6.610;2023-08-30T07:48:32;6.63;;;4.77;;
4704;SDS011;2366;51.332;6.610;2023-08-30T07:50:58;6.87;;;4.87;;
4704;SDS011;2366;51.332;6.610;2023-08-30T07:53:23;7.00;;;4.47;;
4704;SDS011;2366;51.332;6.610;2023-08-30T07:55:49;5.50;;;5.00;;
4704;SDS011;2366;51.332;6.610;2023-08-30T07:58:17;4.57;;;3.90;;
4704;SDS011;2366;51.332;6.610;2023-08-30T08:00:43;6.73;;;4.63;;
4704;SDS011;2366;51.332;6.610;2023-08-30T08:03:08;9.67;;;5.00;;
4704;SDS011;2366;51.332;6.610;2023-08-30T08:05:35;5.73;;;4.80;;
4704;SDS011;2366;51.332;6.610;2023-08-30T08:08:00;6.43;;;4.53;;
4704;SDS011;2366;51.332;6.610;2023-08-30T08:10:32;9.97;;;4.90;;
4704;SDS011;2366;51.332;6.610;2023-08-30T08:13:01;5.50;;;4.63;;
4704;SDS011;2366;51.332;6.610;2023-08-30T08:15:29;8.70;;;5.03;;
4704;SDS011;2366;51.332;6.610;2023-08-30T08:17:58;4.50;;;4.10;;
4704;SDS011;2366;51.332;6.610;2023-08-30T08:20:24;5.80;;;3.43;;
4704;SDS011;2366;51.332;6.610;2023-08-30T08:22:50;3.50;;;3.20;;
4704;SDS011;2366;51.332;6.610;2023-08-30T08:25:15;5.47;;;4.00;;
4704;SDS011;2366;51.332;6.610;2023-08-30T08:27:41;4.90;;;3.40;;
4704;SDS011;2366;51.332;6.610;2023-08-30T08:30:07;4.93;;;2.60;;
4704;SDS011;2366;51.332;6.610;2023-08-30T08:32:33;8.40;;;4.07;;
4704;SDS011;2366;51.332;6.610;2023-08-30T08:34:58;7.43;;;4.40;;
4704;SDS011;2366;51.332;6.610;2023-08-30T08:37:24;12.13;;;4.40;;
4704;SDS011;2366;51.332;6.610;2023-08-30T08:39:49;4.00;;;3.40;;
4704;SDS011;2366;51.332;6.610;2023-08-30T08:42:19;3.10;;;2.80;;
4704;SDS011;2366;51.332;6.610;2023-08-30T08:44:48;5.93;;;3.73;;
4704;SDS011;2366;51.332;6.610;2023-08-30T08:47:19;5.03;;;3.40;;
4704;SDS011;2366;51.332;6.610;2023-08-30T08:49:46;9.23;;;4.17;;
4704;SDS011;2366;51.332;6.610;2023-08-30T08:52:11;5.23;;;3.43;;
4704;SDS011;2366;51.332;6.610;2023-08-30T08:54:39;6.60;;;3.87;;
4704;SDS011;2366;51.332;6.610;2023-08-30T08:57:06;9.43;;;3.33;;
4704;SDS011;2366;51.332;6.610;2023-08-30T08:59:32;6.83;;;4.70;;
4704;SDS011;2366;51.332;6.610;2023-08-30T09:01:59;3.53;;;3.07;;
4704;SDS011;2366;51.332;6.610;2023-08-30T09:04:25;5.80;;;3.63;;
4704;SDS011;2366;51.332;6.610;2023-08-30T09:06:51;6.70;;;4.00;;
4704;SDS011;2366;51.332;6.610;2023-08-30T09:09:17;5.90;;;3.90;;
4704;SDS011;2366;51.332;6.610;2023-08-30T09:11:42;3.23;;;3.03;;
4704;SDS011;2366;51.332;6.610;2023-08-30T09:14:11;4.57;;;3.80;;
4704;SDS011;2366;51.332;6.610;2023-08-30T09:16:36;4.40;;;4.00;;
4704;SDS011;2366;51.332;6.610;2023-08-30T09:19:02;5.30;;;4.20;;
4704;SDS011;2366;51.332;6.610;2023-08-30T09:21:29;5.00;;;4.43;;
4704;SDS011;2366;51.332;6.610;2023-08-30T09:24:06;5.37;;;3.80;;
4704;SDS011;2366;51.332;6.610;2023-08-30T09:26:34;9.13;;;5.10;;
4704;SDS011;2366;51.332;6.610;2023-08-30T09:29:02;4.73;;;4.10;;
4704;SDS011;2366;51.332;6.610;2023-08-30T09:31:35;8.73;;;5.67;;
4704;SDS011;2366;51.332;6.610;2023-08-30T09:34:02;4.50;;;4.10;;
4704;SDS011;2366;51.332;6.610;2023-08-30T09:36:34;7.50;;;5.00;;
4704;SDS011;2366;51.332;6.610;2023-08-30T09:39:19;8.20;;;5.30;;
4704;SDS011;2366;51.332;6.610;2023-08-30T09:41:48;5.13;;;4.63;;
4704;SDS011;2366;51.332;6.610;2023-08-30T09:44:16;6.33;;;5.23;;
4704;SDS011;2366;51.332;6.610;2023-08-30T09:46:46;11.10;;;6.10;;
4704;SDS011;2366;51.332;6.610;2023-08-30T09:49:14;8.20;;;5.67;;
4704;SDS011;2366;51.332;6.610;2023-08-30T09:51:40;4.80;;;4.40;;
4704;SDS011;2366;51.332;6.610;2023-08-30T09:54:09;6.13;;;5.13;;
4704;SDS011;2366;51.332;6.610;2023-08-30T09:56:39;13.90;;;5.00;;
4704;SDS011;2366;51.332;6.610;2023-08-30T09:59:06;5.00;;;4.50;;
4704;SDS011;2366;51.332;6.610;2023-08-30T10:01:32;4.93;;;4.53;;
4704;SDS011;2366;51.332;6.610;2023-08-30T10:03:59;7.63;;;5.43;;
4704;SDS011;2366;51.332;6.610;2023-08-30T10:06:28;5.50;;;4.88;;
4704;SDS011;2366;51.332;6.610;2023-08-30T10:08:54;4.55;;;4.03;;
4704;SDS011;2366;51.332;6.610;2023-08-30T10:11:21;5.20;;;4.00;;
4704;SDS011;2366;51.332;6.610;2023-08-30T10:13:49;9.02;;;3.65;;
4704;SDS011;2366;51.332;6.610;2023-08-30T10:16:22;7.45;;;4.20;;
4704;SDS011;2366;51.332;6.610;2023-08-30T10:18:52;7.57;;;3.47;;
4704;SDS011;2366;51.332;6.610;2023-08-30T10:21:25;4.50;;;4.10;;
4704;SDS011;2366;51.332;6.610;2023-08-30T10:23:52;6.70;;;4.43;;
4704;SDS011;2366;51.332;6.610;2023-08-30T10:26:21;8.27;;;3.90;;
4704;SDS011;2366;51.332;6.610;2023-08-30T10:28:50;8.30;;;5.07;;
4704;SDS011;2366;51.332;6.610;2023-08-30T10:31:18;7.32;;;5.30;;
4704;SDS011;2366;51.332;6.610;2023-08-30T10:33:46;6.80;;;6.20;;
4704;SDS011;2366;51.332;6.610;2023-08-30T10:36:19;7.40;;;6.70;;
4704;SDS011;2366;51.332;6.610;2023-08-30T10:38:48;15.30;;;6.65;;
4704;SDS011;2366;51.332;6.610;2023-08-30T10:41:19;7.75;;;6.30;;
4704;SDS011;2366;51.332;6.610;2023-08-30T10:43:49;6.40;;;5.80;;
4704;SDS011;2366;51.332;6.610;2023-08-30T10:46:16;8.30;;;6.70;;
4704;SDS011;2366;51.332;6.610;2023-08-30T10:48:41;8.30;;;5.50;;
4704;SDS011;2366;51.332;6.610;2023-08-30T10:51:21;5.70;;;4.90;;
4704;SDS011;2366;51.332;6.610;2023-08-30T10:54:13;7.57;;;6.30;;
4704;SDS011;2366;51.332;6.610;2023-08-30T10:56:56;5.45;;;4.95;;
4704;SDS011;2366;51.332;6.610;2023-08-30T10:59:24;7.68;;;5.10;;
4704;SDS011;2366;51.332;6.610;2023-08-30T11:01:50;9.67;;;5.17;;
4704;SDS011;2366;51.332;6.610;2023-08-30T11:04:21;6.70;;;4.80;;
4704;SDS011;2366;51.332;6.610;2023-08-30T11:06:47;4.70;;;3.65;;
4704;SDS011;2366;51.332;6.610;2023-08-30T11:09:15;9.80;;;4.80;;
4704;SDS011;2366;51.332;6.610;2023-08-30T11:11:47;5.00;;;4.60;;
4704;SDS011;2366;51.332;6.610;2023-08-30T11:14:14;4.55;;;3.90;;
4704;SDS011;2366;51.332;6.610;2023-08-30T11:16:41;4.30;;;3.90;;
4704;SDS011;2366;51.332;6.610;2023-08-30T11:19:08;8.50;;;4.70;;
4704;SDS011;2366;51.332;6.610;2023-08-30T11:21:35;5.95;;;3.55;;
4704;SDS011;2366;51.332;6.610;2023-08-30T11:24:03;6.30;;;3.80;;
4704;SDS011;2366;51.332;6.610;2023-08-30T11:26:29;4.80;;;3.70;;
4704;SDS011;2366;51.332;6.610;2023-08-30T11:28:54;5.00;;;3.60;;
4704;SDS011;2366;51.332;6.610;2023-08-30T11:31:21;3.57;;;3.13;;
4704;SDS011;2366;51.332;6.610;2023-08-30T11:33:57;6.20;;;3.15;;
4704;SDS011;2366;51.332;6.610;2023-08-30T11:36:26;4.43;;;3.60;;
4704;SDS011;2366;51.332;6.610;2023-08-30T11:38:53;7.43;;;2.85;;
4704;SDS011;2366;51.332;6.610;2023-08-30T11:41:19;4.77;;;3.10;;
4704;SDS011;2366;51.332;6.610;2023-08-30T11:43:45;3.35;;;3.05;;
4704;SDS011;2366;51.332;6.610;2023-08-30T11:46:12;3.70;;;3.10;;
4704;SDS011;2366;51.332;6.610;2023-08-30T11:48:41;3.10;;;2.63;;
4704;SDS011;2366;51.332;6.610;2023-08-30T11:51:07;2.83;;;2.63;;
4704;SDS011;2366;51.332;6.610;2023-08-30T11:53:33;4.27;;;3.77;;
4704;SDS011;2366;51.332;6.610;2023-08-30T11:55:59;2.87;;;2.63;;
4704;SDS011;2366;51.332;6.610;2023-08-30T11:58:25;3.80;;;3.00;;
4704;SDS011;2366;51.332;6.610;2023-08-30T12:00:51;2.90;;;2.70;;
4704;SDS011;2366;51.332;6.610;2023-08-30T12:03:19;2.77;;;2.57;;
4704;SDS011;2366;51.332;6.610;2023-08-30T12:05:48;2.80;;;2.43;;
4704;SDS011;2366;51.332;6.610;2023-08-30T12:08:25;2.30;;;2.10;;
4704;SDS011;2366;51.332;6.610;2023-08-30T12:10:52;3.75;;;3.08;;
4704;SDS011;2366;51.332;6.610;2023-08-30T12:13:22;5.37;;;2.77;;
4704;SDS011;2366;51.332;6.610;2023-08-30T12:15:48;4.00;;;3.20;;
4704;SDS011;2366;51.332;6.610;2023-08-30T12:18:14;4.17;;;3.77;;
4704;SDS011;2366;51.332;6.610;2023-08-30T12:20:40;3.20;;;2.90;;
4704;SDS011;2366;51.332;6.610;2023-08-30T12:23:31;3.97;;;3.20;;
4704;SDS011;2366;51.332;6.610;2023-08-30T12:28:27;4.50;;;3.50;;
4704;SDS011;2366;51.332;6.610;2023-08-30T12:30:53;4.35;;;3.60;;
4704;SDS011;2366;51.332;6.610;2023-08-30T12:33:19;3.50;;;3.20;;
4704;SDS011;2366;51.332;6.610;2023-08-30T12:35:44;3.77;;;3.40;;
4704;SDS011;2366;51.332;6.610;2023-08-30T12:38:10;3.50;;;3.23;;
4704;SDS011;2366;51.332;6.610;2023-08-30T12:40:45;3.13;;;2.88;;
4704;SDS011;2366;51.332;6.610;2023-08-30T12:43:12;5.07;;;4.45;;
4704;SDS011;2366;51.332;6.610;2023-08-30T12:45:39;4.47;;;3.42;;
4704;SDS011;2366;51.332;6.610;2023-08-30T12:48:05;3.33;;;3.13;;
4704;SDS011;2366;51.332;6.610;2023-08-30T12:50:32;4.22;;;3.80;;
4704;SDS011;2366;51.332;6.610;2023-08-30T12:52:57;4.70;;;3.93;;
4704;SDS011;2366;51.332;6.610;2023-08-30T12:55:23;4.47;;;3.87;;
4704;SDS011;2366;51.332;6.610;2023-08-30T12:57:48;3.43;;;3.20;;
4704;SDS011;2366;51.332;6.610;2023-08-30T13:00:13;7.30;;;4.20;;
4704;SDS011;2366;51.332;6.610;2023-08-30T13:02:39;4.53;;;4.10;;
4704;SDS011;2366;51.332;6.610;2023-08-30T13:05:05;3.77;;;3.47;;
4704;SDS011;2366;51.332;6.610;2023-08-30T13:07:30;4.60;;;4.20;;
4704;SDS011;2366;51.332;6.610;2023-08-30T13:09:56;4.10;;;3.33;;
4704;SDS011;2366;51.332;6.610;2023-08-30T13:12:21;3.27;;;3.07;;
4704;SDS011;2366;51.332;6.610;2023-08-30T13:14:47;3.30;;;3.03;;
4704;SDS011;2366;51.332;6.610;2023-08-30T13:17:12;4.17;;;3.60;;
4704;SDS011;2366;51.332;6.610;2023-08-30T13:19:38;7.17;;;3.33;;
4704;SDS011;2366;51.332;6.610;2023-08-30T13:22:03;4.00;;;3.57;;
4704;SDS011;2366;51.332;6.610;2023-08-30T13:24:29;3.97;;;3.50;;
4704;SDS011;2366;51.332;6.610;2023-08-30T13:26:57;4.75;;;3.33;;
4704;SDS011;2366;51.332;6.610;2023-08-30T13:29:23;3.13;;;2.90;;
4704;SDS011;2366;51.332;6.610;2023-08-30T13:31:48;6.40;;;3.87;;
4704;SDS011;2366;51.332;6.610;2023-08-30T13:34:13;3.30;;;2.73;;
4704;SDS011;2366;51.332;6.610;2023-08-30T13:36:39;5.50;;;3.00;;
4704;SDS011;2366;51.332;6.610;2023-08-30T13:39:04;3.40;;;3.10;;
4704;SDS011;2366;51.332;6.610;2023-08-30T13:41:30;3.60;;;3.30;;
4704;SDS011;2366;51.332;6.610;2023-08-30T13:43:55;2.77;;;2.57;;
4704;SDS011;2366;51.332;6.610;2023-08-30T13:46:21;3.55;;;2.38;;
4704;SDS011;2366;51.332;6.610;2023-08-30T13:48:47;6.83;;;3.20;;
4704;SDS011;2366;51.332;6.610;2023-08-30T13:51:13;3.07;;;2.80;;
4704;SDS011;2366;51.332;6.610;2023-08-30T13:53:38;3.40;;;2.87;;
4704;SDS011;2366;51.332;6.610;2023-08-30T13:56:04;3.80;;;3.00;;
4704;SDS011;2366;51.332;6.610;2023-08-30T13:58:29;3.70;;;3.37;;
4704;SDS011;2366;51.332;6.610;2023-08-30T14:00:55;4.40;;;3.20;;
4704;SDS011;2366;51.332;6.610;2023-08-30T14:03:20;3.80;;;3.10;;
4704;SDS011;2366;51.332;6.610;2023-08-30T14:05:46;4.10;;;3.70;;
4704;SDS011;2366;51.332;6.610;2023-08-30T14:08:11;4.50;;;3.37;;
4704;SDS011;2366;51.332;6.610;2023-08-30T14:10:36;3.20;;;2.97;;
4704;SDS011;2366;51.332;6.610;2023-08-30T14:13:03;3.33;;;3.03;;
4704;SDS011;2366;51.332;6.610;2023-08-30T14:15:30;4.97;;;3.50;;
4704;SDS011;2366;51.332;6.610;2023-08-30T14:17:55;5.70;;;3.97;;
4704;SDS011;2366;51.332;6.610;2023-08-30T14:20:21;4.37;;;3.37;;
4704;SDS011;2366;51.332;6.610;2023-08-30T14:22:47;5.70;;;4.07;;
4704;SDS011;2366;51.332;6.610;2023-08-30T14:25:12;3.57;;;3.27;;
4704;SDS011;2366;51.332;6.610;2023-08-30T14:27:38;4.13;;;3.83;;
4704;SDS011;2366;51.332;6.610;2023-08-30T14:30:04;6.25;;;4.60;;
4704;SDS011;2366;51.332;6.610;2023-08-30T14:32:30;4.38;;;3.97;;
4704;SDS011;2366;51.332;6.610;2023-08-30T14:34:56;8.27;;;4.53;;
4704;SDS011;2366;51.332;6.610;2023-08-30T14:37:21;4.40;;;3.93;;
4704;SDS011;2366;51.332;6.610;2023-08-30T14:39:46;5.27;;;4.40;;
4704;SDS011;2366;51.332;6.610;2023-08-30T14:42:12;4.50;;;3.77;;
4704;SDS011;2366;51.332;6.610;2023-08-30T14:44:37;14.03;;;5.13;;
4704;SDS011;2366;51.332;6.610;2023-08-30T14:47:02;6.77;;;5.53;;
4704;SDS011;2366;51.332;6.610;2023-08-30T14:49:29;5.27;;;4.77;;
4704;SDS011;2366;51.332;6.610;2023-08-30T14:51:55;6.55;;;5.15;;
4704;SDS011;2366;51.332;6.610;2023-08-30T14:54:21;5.40;;;4.87;;
4704;SDS011;2366;51.332;6.610;2023-08-30T14:56:46;6.77;;;5.50;;
4704;SDS011;2366;51.332;6.610;2023-08-30T14:59:12;5.20;;;4.50;;
4704;SDS011;2366;51.332;6.610;2023-08-30T15:01:37;4.87;;;4.23;;
4704;SDS011;2366;51.332;6.610;2023-08-30T15:04:03;5.17;;;4.53;;
4704;SDS011;2366;51.332;6.610;2023-08-30T15:06:28;7.80;;;5.00;;